Valle Di Andalusia — IBTJ — position and weather

sailwx.info

Track history (hours):
 
Tides and Currents Weather Stations Pressure Air Temp Water Temp Dewpoint Dewpoint Depression Visibility Wind Speed Wind Dir Waves Ship Positions

Valle Di Andalusia

Last reported at 2015-May-18 01:33 UTC. Time now 2015-May-24 19:22 UTC.
Position N 40°23' E 018°31'.

Length 176 m; draft 8 m.

Type: Ship (hazmat cat A). MMSI: 247046200.

Date/timePositionNaut miles runAvg speedWind from/ knotsBaromVisibWave heightAir tempDewpointWater temp
2015-May-18 01:33N 40°23' E 018°31'1312.8
2015-May-18 00:33N 40°12' E 018°40'1211.9
2015-May-17 23:33N 40°00' E 018°38'1312.6
2015-May-17 22:33N 39°48' E 018°33'1211.8
2015-May-17 21:33N 39°39' E 018°24'1212.3
2015-May-17 20:33N 39°30' E 018°13'1312.4
2015-May-17 19:32N 39°21' E 018°01'132 9.4
2015-May-17 05:27N 38°13' E 015°36'13310.8
2015-May-16 17:06N 39°55' E 013°46'712.2
2015-May-16 16:33N 39°60' E 013°39'1412.3
2015-May-16 15:27N 40°08' E 013°26'21812.1
2015-May-15 21:23N 42°34' E 009°49'3013.0
2015-May-15 19:04N 43°02' E 009°37'712.9
2015-May-15 18:33N 43°08' E 009°32'1212.0
2015-May-15 17:33N 43°20' E 009°27'1111.5
2015-May-15 16:33N 43°31' E 009°23'1211.9
2015-May-15 15:33N 43°42' E 009°16'1111.3
2015-May-15 14:33N 43°52' E 009°11'1111.3
2015-May-15 13:33N 44°02' E 009°04'1211.7
2015-May-15 12:33N 44°12' E 008°55'1211.6
2015-May-15 11:34N 44°22' E 008°46'4 4.3
2015-May-15 10:32N 44°25' E 008°50'0 0.0
2015-May-15 09:31N 44°25' E 008°50'0 0.0
2015-May-15 08:31N 44°25' E 008°50'0 0.0
2015-May-15 07:34N 44°25' E 008°50'0 0.0
2015-May-15 06:32N 44°25' E 008°50'0 0.0
2015-May-15 05:31N 44°25' E 008°50'0 0.0
2015-May-15 04:31N 44°25' E 008°50'0 0.0
2015-May-15 03:31N 44°25' E 008°50'0 0.0
2015-May-15 02:33N 44°25' E 008°50'0 0.0
2015-May-15 01:33N 44°25' E 008°50'0 0.0
2015-May-15 00:32N 44°25' E 008°50'0 0.0
2015-May-14 23:32N 44°25' E 008°50'0 0.0
2015-May-14 22:25N 44°25' E 008°50'0 0.0
2015-May-14 21:31N 44°25' E 008°50'0 0.0
2015-May-14 20:31N 44°25' E 008°50'0 0.0
2015-May-14 19:30N 44°25' E 008°50'0 0.0
2015-May-14 18:33N 44°25' E 008°50'0 0.0
2015-May-14 17:32N 44°25' E 008°50'0 0.0
2015-May-14 16:32N 44°25' E 008°50'0 0.0
2015-May-14 15:32N 44°25' E 008°50'0 0.0
2015-May-14 14:31N 44°25' E 008°50'0 0.0
2015-May-14 13:31N 44°25' E 008°50'0 0.0
2015-May-14 12:30N 44°25' E 008°50'0 0.0
2015-May-14 11:33N 44°25' E 008°50'0 0.0
2015-May-14 10:32N 44°25' E 008°50'0 0.0
2015-May-14 09:29N 44°25' E 008°50'0 0.0
2015-May-14 08:31N 44°25' E 008°50'0 0.0
2015-May-14 07:30N 44°25' E 008°50'0 0.0
2015-May-14 05:32N 44°25' E 008°50'0 0.0
2015-May-14 04:15N 44°25' E 008°50'0 0.0
2015-May-14 03:31N 44°25' E 008°50'0 0.0
2015-May-14 02:28N 44°25' E 008°50'0 0.0
2015-May-14 01:29N 44°25' E 008°50'0 0.0
2015-May-14 00:07N 44°25' E 008°50'0 0.0
2015-May-13 23:18N 44°25' E 008°50'0 0.0
2015-May-13 22:30N 44°25' E 008°50'0 0.0
2015-May-13 21:33N 44°25' E 008°50'0 0.0
2015-May-13 20:32N 44°25' E 008°50'0 0.0
2015-May-13 19:32N 44°25' E 008°50'0 0.0
2015-May-13 18:31N 44°25' E 008°50'0 0.0
2015-May-13 17:31N 44°25' E 008°50'0 0.0
2015-May-13 16:31N 44°25' E 008°50'0 0.0
2015-May-13 15:30N 44°25' E 008°50'0 0.0
2015-May-13 14:33N 44°25' E 008°50'0 0.0
2015-May-13 13:17N 44°25' E 008°50'0 0.0
2015-May-13 12:32N 44°25' E 008°50'0 0.0
2015-May-13 11:31N 44°25' E 008°50'0 0.0
2015-May-13 10:25N 44°25' E 008°50'0 0.0
2015-May-13 09:30N 44°25' E 008°50'0 0.0
2015-May-13 08:33N 44°25' E 008°50'0 0.0
2015-May-13 07:33N 44°25' E 008°50'0 0.0
2015-May-13 06:20N 44°25' E 008°50'0 0.0
2015-May-13 05:32N 44°25' E 008°50'0 0.2
2015-May-13 04:34N 44°25' E 008°50'5 4.3
2015-May-13 03:26N 44°20' E 008°49'7 7.6
2015-May-13 02:32N 44°14' E 008°51'1 1.1
2015-May-13 01:31N 44°13' E 008°52'1 1.0
2015-May-13 00:31N 44°13' E 008°54'1 0.9
2015-May-12 23:34N 44°13' E 008°55'1 0.8
2015-May-12 22:33N 44°12' E 008°56'1 0.8
2015-May-12 21:33N 44°12' E 008°57'1 0.9
2015-May-12 20:32N 44°11' E 008°58'1 1.0
2015-May-12 19:32N 44°11' E 008°59'0 0.3
2015-May-12 18:33N 44°10' E 008°58'8 7.6
2015-May-12 17:31N 44°11' E 008°47'0 0.5
2015-May-12 16:30N 44°11' E 008°48'0 0.5
2015-May-12 15:34N 44°11' E 008°49'1 0.6
2015-May-12 14:32N 44°11' E 008°49'1 0.5
2015-May-12 13:32N 44°11' E 008°50'0 0.5
2015-May-12 12:32N 44°10' E 008°51'1 0.7
2015-May-12 11:31N 44°10' E 008°51'1 0.8
2015-May-12 10:30N 44°09' E 008°52'2 1.6
2015-May-12 09:33N 44°08' E 008°51'3 3.1
2015-May-12 08:33N 44°09' E 008°46'0 0.3
2015-May-12 07:33N 44°09' E 008°47'0 0.3
2015-May-12 06:32N 44°09' E 008°47'0 0.4
2015-May-12 05:26N 44°09' E 008°48'0 0.4
2015-May-12 04:31N 44°08' E 008°48'0 0.4
2015-May-12 03:32N 44°08' E 008°49'0 0.4
2015-May-12 02:32N 44°08' E 008°49'0 0.4
2015-May-12 01:31N 44°08' E 008°50'0 0.4
2015-May-12 00:31N 44°08' E 008°50'0 0.5
2015-May-11 23:33N 44°08' E 008°51'1 0.5
2015-May-11 22:28N 44°08' E 008°51'0 0.5
2015-May-11 21:31N 44°07' E 008°52'0 0.4
2015-May-11 20:33N 44°07' E 008°53'0 0.4
2015-May-11 19:33N 44°07' E 008°53'1 1.2
2015-May-11 18:33N 44°08' E 008°55'6 5.9
2015-May-11 17:33N 44°14' E 008°52'0 0.3
2015-May-11 16:32N 44°14' E 008°52'0 0.4
2015-May-11 15:31N 44°13' E 008°52'1 0.5
2015-May-11 14:31N 44°13' E 008°52'1 0.7
2015-May-11 13:33N 44°12' E 008°52'1 0.8
2015-May-11 12:33N 44°11' E 008°53'1 0.6
2015-May-11 11:33N 44°11' E 008°53'5 5.1
2015-May-11 10:31N 44°16' E 008°50'1 0.8
2015-May-11 09:33N 44°15' E 008°51'1 0.8
2015-May-11 08:33N 44°14' E 008°52'1 0.8
2015-May-11 07:34N 44°14' E 008°52'1 0.7
2015-May-11 06:34N 44°13' E 008°53'1 0.7
2015-May-11 05:33N 44°13' E 008°54'1 0.6
2015-May-11 04:34N 44°12' E 008°54'0 0.4
2015-May-11 03:33N 44°12' E 008°55'0 0.4
2015-May-11 02:33N 44°12' E 008°55'0 0.4
2015-May-11 01:34N 44°11' E 008°55'0 0.4
2015-May-11 00:34N 44°11' E 008°55'0 0.4
2015-May-10 23:34N 44°11' E 008°55'0 0.4
2015-May-10 22:33N 44°10' E 008°55'1 0.6
2015-May-10 21:33N 44°10' E 008°55'1 0.7
2015-May-10 20:34N 44°09' E 008°55'1 0.6
2015-May-10 19:34N 44°08' E 008°55'2 1.9
2015-May-10 18:33N 44°10' E 008°57'3 2.6
2015-May-10 17:33N 44°12' E 008°59'2 1.8
2015-May-10 16:33N 44°13' E 008°57'3 2.9
2015-May-10 15:33N 44°15' E 008°54'1 0.5
2015-May-10 14:33N 44°14' E 008°54'1 0.8
2015-May-10 13:33N 44°14' E 008°54'1 0.9
2015-May-10 12:33N 44°13' E 008°55'1 0.7
2015-May-10 11:33N 44°12' E 008°56'1 0.7
2015-May-10 10:33N 44°12' E 008°56'0 0.2
2015-May-10 09:33N 44°11' E 008°56'4 3.7
2015-May-10 08:33N 44°13' E 008°51'1 0.6
2015-May-10 07:34N 44°14' E 008°51'0 0.2
2015-May-10 06:33N 44°14' E 008°52'0 0.2
2015-May-10 05:33N 44°14' E 008°52'0 0.2
2015-May-10 04:33N 44°14' E 008°52'0 0.2
2015-May-10 03:33N 44°14' E 008°52'0 0.3
2015-May-10 02:33N 44°13' E 008°53'0 0.4
2015-May-10 01:33N 44°13' E 008°53'1 0.5
2015-May-10 00:33N 44°13' E 008°54'0 0.5
2015-May-09 23:33N 44°12' E 008°54'1 0.6
2015-May-09 22:33N 44°12' E 008°54'1 0.5
2015-May-09 21:33N 44°11' E 008°54'2 2.1
2015-May-09 20:34N 44°11' E 008°51'2 2.0
2015-May-09 19:33N 44°11' E 008°49'0 0.3
2015-May-09 18:33N 44°11' E 008°49'0 0.3
2015-May-09 17:33N 44°11' E 008°49'0 0.3
2015-May-09 16:34N 44°11' E 008°50'0 0.2
2015-May-09 15:33N 44°11' E 008°50'0 0.2
2015-May-09 14:33N 44°12' E 008°50'0 0.1
2015-May-09 13:33N 44°12' E 008°50'0 0.0
2015-May-09 12:33N 44°12' E 008°50'0 0.2
2015-May-09 11:33N 44°12' E 008°50'2 2.3
2015-May-09 10:33N 44°10' E 008°48'0 0.2
2015-May-09 09:33N 44°10' E 008°48'0 0.2
2015-May-09 08:33N 44°10' E 008°48'0 0.2
2015-May-09 07:33N 44°10' E 008°48'0 0.4
2015-May-09 06:34N 44°10' E 008°49'0 0.3
2015-May-09 05:34N 44°10' E 008°49'0 0.4
2015-May-09 04:34N 44°10' E 008°50'0 0.4
2015-May-09 03:34N 44°10' E 008°50'1 0.5
2015-May-09 02:34N 44°11' E 008°51'0 0.5
2015-May-09 01:33N 44°11' E 008°51'1 0.5
2015-May-09 00:33N 44°11' E 008°52'0 0.3
2015-May-08 23:34N 44°11' E 008°53'0 0.3
2015-May-08 22:33N 44°11' E 008°53'0 0.3
2015-May-08 21:33N 44°11' E 008°53'0 0.2
2015-May-08 20:34N 44°11' E 008°54'0 0.3
2015-May-08 19:33N 44°11' E 008°54'0 0.2
2015-May-08 18:34N 44°11' E 008°54'0 0.2
2015-May-08 17:34N 44°11' E 008°54'8 8.0
2015-May-08 16:33N 44°18' E 008°51'8 7.9
2015-May-08 15:33N 44°14' E 008°59'1312.7
2015-May-08 14:33N 44°04' E 009°11'1312.8
2015-May-08 13:34N 43°55' E 009°23'1312.7
2015-May-08 12:34N 43°45' E 009°35'1212.3
2015-May-08 11:33N 43°36' E 009°46'1211.9
2015-May-08 10:33N 43°30' E 010°00'1211.8
2015-May-08 09:33N 43°32' E 010°16'2 2.0
2015-May-08 08:32N 43°34' E 010°18'0 0.0
2015-May-08 07:29N 43°34' E 010°18'0 0.0
2015-May-08 06:31N 43°34' E 010°18'0 0.0
2015-May-08 05:31N 43°34' E 010°18'0 0.0
2015-May-08 04:34N 43°34' E 010°18'0 0.0
2015-May-08 03:33N 43°34' E 010°18'0 0.0
2015-May-08 02:33N 43°34' E 010°18'  
Track history (hours):
 
Tides and Currents Weather Stations Pressure Air Temp Water Temp Dewpoint Dewpoint Depression Visibility Wind Speed Wind Dir Waves Ship Positions

Valle Di Andalusia

Last reported at 2015-May-18 01:33 UTC. Time now 2015-May-24 19:22 UTC.
Position N 40°23' E 018°31'.

Length 176 m; draft 8 m.

Type: Ship (hazmat cat A). MMSI: 247046200.

Date/timePositionNaut miles runAvg speedWind from/ knotsBaromVisibWave heightAir tempDewpointWater temp
2015-May-18 01:33N 40°23' E 018°31'1312.8
2015-May-18 00:33N 40°12' E 018°40'1211.9
2015-May-17 23:33N 40°00' E 018°38'1312.6
2015-May-17 22:33N 39°48' E 018°33'1211.8
2015-May-17 21:33N 39°39' E 018°24'1212.3
2015-May-17 20:33N 39°30' E 018°13'1312.4
2015-May-17 19:32N 39°21' E 018°01'132 9.4
2015-May-17 05:27N 38°13' E 015°36'13310.8
2015-May-16 17:06N 39°55' E 013°46'712.2
2015-May-16 16:33N 39°60' E 013°39'1412.3
2015-May-16 15:27N 40°08' E 013°26'21812.1
2015-May-15 21:23N 42°34' E 009°49'3013.0
2015-May-15 19:04N 43°02' E 009°37'712.9
2015-May-15 18:33N 43°08' E 009°32'1212.0
2015-May-15 17:33N 43°20' E 009°27'1111.5
2015-May-15 16:33N 43°31' E 009°23'1211.9
2015-May-15 15:33N 43°42' E 009°16'1111.3
2015-May-15 14:33N 43°52' E 009°11'1111.3
2015-May-15 13:33N 44°02' E 009°04'1211.7
2015-May-15 12:33N 44°12' E 008°55'1211.6
2015-May-15 11:34N 44°22' E 008°46'4 4.3
2015-May-15 10:32N 44°25' E 008°50'0 0.0
2015-May-15 09:31N 44°25' E 008°50'0 0.0
2015-May-15 08:31N 44°25' E 008°50'0 0.0
2015-May-15 07:34N 44°25' E 008°50'0 0.0
2015-May-15 06:32N 44°25' E 008°50'0 0.0
2015-May-15 05:31N 44°25' E 008°50'0 0.0
2015-May-15 04:31N 44°25' E 008°50'0 0.0
2015-May-15 03:31N 44°25' E 008°50'0 0.0
2015-May-15 02:33N 44°25' E 008°50'0 0.0
2015-May-15 01:33N 44°25' E 008°50'0 0.0
2015-May-15 00:32N 44°25' E 008°50'0 0.0
2015-May-14 23:32N 44°25' E 008°50'0 0.0
2015-May-14 22:25N 44°25' E 008°50'0 0.0
2015-May-14 21:31N 44°25' E 008°50'0 0.0
2015-May-14 20:31N 44°25' E 008°50'0 0.0
2015-May-14 19:30N 44°25' E 008°50'0 0.0
2015-May-14 18:33N 44°25' E 008°50'0 0.0
2015-May-14 17:32N 44°25' E 008°50'0 0.0
2015-May-14 16:32N 44°25' E 008°50'0 0.0
2015-May-14 15:32N 44°25' E 008°50'0 0.0
2015-May-14 14:31N 44°25' E 008°50'0 0.0
2015-May-14 13:31N 44°25' E 008°50'0 0.0
2015-May-14 12:30N 44°25' E 008°50'0 0.0
2015-May-14 11:33N 44°25' E 008°50'0 0.0
2015-May-14 10:32N 44°25' E 008°50'0 0.0
2015-May-14 09:29N 44°25' E 008°50'0 0.0
2015-May-14 08:31N 44°25' E 008°50'0 0.0
2015-May-14 07:30N 44°25' E 008°50'0 0.0
2015-May-14 05:32N 44°25' E 008°50'0 0.0
2015-May-14 04:15N 44°25' E 008°50'0 0.0
2015-May-14 03:31N 44°25' E 008°50'0 0.0
2015-May-14 02:28N 44°25' E 008°50'0 0.0
2015-May-14 01:29N 44°25' E 008°50'0 0.0
2015-May-14 00:07N 44°25' E 008°50'0 0.0
2015-May-13 23:18N 44°25' E 008°50'0 0.0
2015-May-13 22:30N 44°25' E 008°50'0 0.0
2015-May-13 21:33N 44°25' E 008°50'0 0.0
2015-May-13 20:32N 44°25' E 008°50'0 0.0
2015-May-13 19:32N 44°25' E 008°50'0 0.0
2015-May-13 18:31N 44°25' E 008°50'0 0.0
2015-May-13 17:31N 44°25' E 008°50'0 0.0
2015-May-13 16:31N 44°25' E 008°50'0 0.0
2015-May-13 15:30N 44°25' E 008°50'0 0.0
2015-May-13 14:33N 44°25' E 008°50'0 0.0
2015-May-13 13:17N 44°25' E 008°50'0 0.0
2015-May-13 12:32N 44°25' E 008°50'0 0.0
2015-May-13 11:31N 44°25' E 008°50'0 0.0
2015-May-13 10:25N 44°25' E 008°50'0 0.0
2015-May-13 09:30N 44°25' E 008°50'0 0.0
2015-May-13 08:33N 44°25' E 008°50'0 0.0
2015-May-13 07:33N 44°25' E 008°50'0 0.0
2015-May-13 06:20N 44°25' E 008°50'0 0.0
2015-May-13 05:32N 44°25' E 008°50'0 0.2
2015-May-13 04:34N 44°25' E 008°50'5 4.3
2015-May-13 03:26N 44°20' E 008°49'7 7.6
2015-May-13 02:32N 44°14' E 008°51'1 1.1
2015-May-13 01:31N 44°13' E 008°52'1 1.0
2015-May-13 00:31N 44°13' E 008°54'1 0.9
2015-May-12 23:34N 44°13' E 008°55'1 0.8
2015-May-12 22:33N 44°12' E 008°56'1 0.8
2015-May-12 21:33N 44°12' E 008°57'1 0.9
2015-May-12 20:32N 44°11' E 008°58'1 1.0
2015-May-12 19:32N 44°11' E 008°59'0 0.3
2015-May-12 18:33N 44°10' E 008°58'8 7.6
2015-May-12 17:31N 44°11' E 008°47'0 0.5
2015-May-12 16:30N 44°11' E 008°48'0 0.5
2015-May-12 15:34N 44°11' E 008°49'1 0.6
2015-May-12 14:32N 44°11' E 008°49'1 0.5
2015-May-12 13:32N 44°11' E 008°50'0 0.5
2015-May-12 12:32N 44°10' E 008°51'1 0.7
2015-May-12 11:31N 44°10' E 008°51'1 0.8
2015-May-12 10:30N 44°09' E 008°52'2 1.6
2015-May-12 09:33N 44°08' E 008°51'3 3.1
2015-May-12 08:33N 44°09' E 008°46'0 0.3
2015-May-12 07:33N 44°09' E 008°47'0 0.3
2015-May-12 06:32N 44°09' E 008°47'0 0.4
2015-May-12 05:26N 44°09' E 008°48'0 0.4
2015-May-12 04:31N 44°08' E 008°48'0 0.4
2015-May-12 03:32N 44°08' E 008°49'0 0.4
2015-May-12 02:32N 44°08' E 008°49'0 0.4
2015-May-12 01:31N 44°08' E 008°50'0 0.4
2015-May-12 00:31N 44°08' E 008°50'0 0.5
2015-May-11 23:33N 44°08' E 008°51'1 0.5
2015-May-11 22:28N 44°08' E 008°51'0 0.5
2015-May-11 21:31N 44°07' E 008°52'0 0.4
2015-May-11 20:33N 44°07' E 008°53'0 0.4
2015-May-11 19:33N 44°07' E 008°53'1 1.2
2015-May-11 18:33N 44°08' E 008°55'6 5.9
2015-May-11 17:33N 44°14' E 008°52'0 0.3
2015-May-11 16:32N 44°14' E 008°52'0 0.4
2015-May-11 15:31N 44°13' E 008°52'1 0.5
2015-May-11 14:31N 44°13' E 008°52'1 0.7
2015-May-11 13:33N 44°12' E 008°52'1 0.8
2015-May-11 12:33N 44°11' E 008°53'1 0.6
2015-May-11 11:33N 44°11' E 008°53'5 5.1
2015-May-11 10:31N 44°16' E 008°50'1 0.8
2015-May-11 09:33N 44°15' E 008°51'1 0.8
2015-May-11 08:33N 44°14' E 008°52'1 0.8
2015-May-11 07:34N 44°14' E 008°52'1 0.7
2015-May-11 06:34N 44°13' E 008°53'1 0.7
2015-May-11 05:33N 44°13' E 008°54'1 0.6
2015-May-11 04:34N 44°12' E 008°54'0 0.4
2015-May-11 03:33N 44°12' E 008°55'0 0.4
2015-May-11 02:33N 44°12' E 008°55'0 0.4
2015-May-11 01:34N 44°11' E 008°55'0 0.4
2015-May-11 00:34N 44°11' E 008°55'0 0.4
2015-May-10 23:34N 44°11' E 008°55'0 0.4
2015-May-10 22:33N 44°10' E 008°55'1 0.6
2015-May-10 21:33N 44°10' E 008°55'1 0.7
2015-May-10 20:34N 44°09' E 008°55'1 0.6
2015-May-10 19:34N 44°08' E 008°55'2 1.9
2015-May-10 18:33N 44°10' E 008°57'3 2.6
2015-May-10 17:33N 44°12' E 008°59'2 1.8
2015-May-10 16:33N 44°13' E 008°57'3 2.9
2015-May-10 15:33N 44°15' E 008°54'1 0.5
2015-May-10 14:33N 44°14' E 008°54'1 0.8
2015-May-10 13:33N 44°14' E 008°54'1 0.9
2015-May-10 12:33N 44°13' E 008°55'1 0.7
2015-May-10 11:33N 44°12' E 008°56'1 0.7
2015-May-10 10:33N 44°12' E 008°56'0 0.2
2015-May-10 09:33N 44°11' E 008°56'4 3.7
2015-May-10 08:33N 44°13' E 008°51'1 0.6
2015-May-10 07:34N 44°14' E 008°51'0 0.2
2015-May-10 06:33N 44°14' E 008°52'0 0.2
2015-May-10 05:33N 44°14' E 008°52'0 0.2
2015-May-10 04:33N 44°14' E 008°52'0 0.2
2015-May-10 03:33N 44°14' E 008°52'0 0.3
2015-May-10 02:33N 44°13' E 008°53'0 0.4
2015-May-10 01:33N 44°13' E 008°53'1 0.5
2015-May-10 00:33N 44°13' E 008°54'0 0.5
2015-May-09 23:33N 44°12' E 008°54'1 0.6
2015-May-09 22:33N 44°12' E 008°54'1 0.5
2015-May-09 21:33N 44°11' E 008°54'2 2.1
2015-May-09 20:34N 44°11' E 008°51'2 2.0
2015-May-09 19:33N 44°11' E 008°49'0 0.3
2015-May-09 18:33N 44°11' E 008°49'0 0.3
2015-May-09 17:33N 44°11' E 008°49'0 0.3
2015-May-09 16:34N 44°11' E 008°50'0 0.2
2015-May-09 15:33N 44°11' E 008°50'0 0.2
2015-May-09 14:33N 44°12' E 008°50'0 0.1
2015-May-09 13:33N 44°12' E 008°50'0 0.0
2015-May-09 12:33N 44°12' E 008°50'0 0.2
2015-May-09 11:33N 44°12' E 008°50'2 2.3
2015-May-09 10:33N 44°10' E 008°48'0 0.2
2015-May-09 09:33N 44°10' E 008°48'0 0.2
2015-May-09 08:33N 44°10' E 008°48'0 0.2
2015-May-09 07:33N 44°10' E 008°48'0 0.4
2015-May-09 06:34N 44°10' E 008°49'0 0.3
2015-May-09 05:34N 44°10' E 008°49'0 0.4
2015-May-09 04:34N 44°10' E 008°50'0 0.4
2015-May-09 03:34N 44°10' E 008°50'1 0.5
2015-May-09 02:34N 44°11' E 008°51'0 0.5
2015-May-09 01:33N 44°11' E 008°51'1 0.5
2015-May-09 00:33N 44°11' E 008°52'0 0.3
2015-May-08 23:34N 44°11' E 008°53'0 0.3
2015-May-08 22:33N 44°11' E 008°53'0 0.3
2015-May-08 21:33N 44°11' E 008°53'0 0.2
2015-May-08 20:34N 44°11' E 008°54'0 0.3
2015-May-08 19:33N 44°11' E 008°54'0 0.2
2015-May-08 18:34N 44°11' E 008°54'0 0.2
2015-May-08 17:34N 44°11' E 008°54'8 8.0
2015-May-08 16:33N 44°18' E 008°51'8 7.9
2015-May-08 15:33N 44°14' E 008°59'1312.7
2015-May-08 14:33N 44°04' E 009°11'1312.8
2015-May-08 13:34N 43°55' E 009°23'1312.7
2015-May-08 12:34N 43°45' E 009°35'1212.3
2015-May-08 11:33N 43°36' E 009°46'1211.9
2015-May-08 10:33N 43°30' E 010°00'1211.8
2015-May-08 09:33N 43°32' E 010°16'2 2.0
2015-May-08 08:32N 43°34' E 010°18'0 0.0
2015-May-08 07:29N 43°34' E 010°18'0 0.0
2015-May-08 06:31N 43°34' E 010°18'0 0.0
2015-May-08 05:31N 43°34' E 010°18'0 0.0
2015-May-08 04:34N 43°34' E 010°18'0 0.0
2015-May-08 03:33N 43°34' E 010°18'0 0.0
2015-May-08 02:33N 43°34' E 010°18'  

Dump ship's entire track history